Time;durP1;ratioP1;P1;durP2;ratioP2;P2;SDS_P1;SDS_P2;PMS_P1;PMS_P2;Temp;Humidity;BMP_temperature;BMP_pressure;BME280_temperature;BME280_humidity;BME280_pressure;Samples;Min_cycle;Max_cycle;Signal;HPM_P1;HPM_P2
2022/08/12 00:43:47;;;;;;;9.65;5.15;;;18.40;99.90;;;;;;5034681;28;20045;-95
2022/08/12 00:46:31;;;;;;;11.63;5.22;;;18.70;99.90;;;;;;5035605;28;20056;-96
2022/08/12 00:49:05;;;;;;;10.00;5.20;;;19.10;99.90;;;;;;5050578;28;20076;-96
2022/08/12 00:54:17;;;;;;;11.88;5.05;;;18.90;99.90;;;;;;5021793;28;20493;-96
2022/08/12 00:56:43;;;;;;;11.07;5.13;;;18.30;99.90;;;;;;5041274;28;20124;-96
2022/08/12 00:59:10;;;;;;;11.25;5.45;;;18.60;99.90;;;;;;5041540;28;20072;-96
2022/08/12 01:01:36;;;;;;;10.98;5.18;;;18.20;99.90;;;;;;5040095;28;20091;-96
2022/08/12 01:12:26;;;;;;;11.57;5.30;;;18.10;99.90;;;;;;5024775;28;20045;-96
2022/08/12 01:14:52;;;;;;;10.65;5.57;;;18.10;99.90;;;;;;5026253;28;20049;-96
2022/08/12 01:17:20;;;;;;;10.50;5.20;;;18.00;99.90;;;;;;5046987;28;20068;-96
2022/08/12 01:19:47;;;;;;;10.48;5.40;;;18.00;99.90;;;;;;5045279;28;20123;-96
2022/08/12 01:22:30;;;;;;;11.35;5.68;;;18.00;99.90;;;;;;5024373;28;20064;-96
2022/08/12 01:25:08;;;;;;;10.32;5.15;;;18.20;99.90;;;;;;5041695;28;20137;-96
2022/08/12 01:27:36;;;;;;;11.85;5.53;;;18.00;99.90;;;;;;5023211;28;20041;-96
2022/08/12 01:30:06;;;;;;;12.27;5.60;;;18.00;99.90;;;;;;5028444;28;20346;-95
2022/08/12 01:32:36;;;;;;;13.25;5.35;;;17.90;99.90;;;;;;5037023;28;20045;-96
2022/08/12 01:35:11;;;;;;;13.18;5.78;;;17.90;99.90;;;;;;5026384;28;20567;-96
2022/08/12 01:37:44;;;;;;;11.68;5.85;;;17.90;99.90;;;;;;5027385;28;20037;-96
2022/08/12 01:40:10;;;;;;;11.90;5.43;;;17.90;99.90;;;;;;5040668;28;20145;-96
2022/08/12 01:42:49;;;;;;;11.93;5.70;;;17.80;99.90;;;;;;5057263;28;20045;-96
2022/08/12 01:45:17;;;;;;;11.27;5.55;;;17.70;99.90;;;;;;5047669;28;20033;-96
2022/08/12 01:48:00;;;;;;;11.65;5.70;;;17.70;99.90;;;;;;5029020;28;20042;-95
2022/08/12 01:50:39;;;;;;;11.25;6.03;;;17.70;99.90;;;;;;5041448;28;20049;-95
2022/08/12 01:53:11;;;;;;;10.52;5.85;;;17.70;99.90;;;;;;5047884;28;20041;-96
2022/08/12 01:55:44;;;;;;;11.18;6.63;;;17.60;99.90;;;;;;5026585;28;20055;-96
2022/08/12 01:58:21;;;;;;;11.00;6.03;;;17.60;99.90;;;;;;5034885;28;20041;-94
2022/08/12 02:00:59;;;;;;;11.30;5.70;;;17.50;99.90;;;;;;5057624;28;20105;-96
2022/08/12 02:13:01;;;;;;;14.88;5.40;;;17.40;99.90;;;;;;5026485;28;20049;-96
2022/08/12 02:15:40;;;;;;;11.98;5.80;;;17.30;99.90;;;;;;5032136;28;20042;-96
2022/08/12 02:18:24;;;;;;;16.88;6.38;;;17.30;99.90;;;;;;5041210;28;20049;-96
2022/08/12 02:21:02;;;;;;;11.90;6.20;;;17.20;99.90;;;;;;5041064;28;20075;-96
2022/08/12 02:23:29;;;;;;;14.88;6.78;;;17.20;99.90;;;;;;5054441;28;20099;-96
2022/08/12 02:26:00;;;;;;;15.02;7.00;;;17.20;99.90;;;;;;5030094;28;20045;-96
2022/08/12 02:28:26;;;;;;;12.63;6.90;;;17.10;99.90;;;;;;5031638;28;20132;-95
2022/08/12 02:30:53;;;;;;;11.93;6.18;;;17.10;99.90;;;;;;5032574;28;20041;-96
2022/08/12 02:49:18;;;;;;;13.05;6.60;;;17.00;99.90;;;;;;4992559;28;20073;-96
2022/08/12 02:51:44;;;;;;;15.53;6.77;;;17.10;99.90;;;;;;4997478;28;20054;-96
2022/08/12 02:54:10;;;;;;;14.02;6.97;;;16.90;99.90;;;;;;4996140;28;20043;-96
2022/08/12 02:56:41;;;;;;;11.45;6.90;;;17.70;99.90;;;;;;4997172;28;20027;-96
2022/08/12 02:59:12;;;;;;;11.73;6.82;;;16.50;99.90;;;;;;4997902;28;20054;-96
2022/08/12 03:01:47;;;;;;;14.35;7.10;;;17.20;99.90;;;;;;4978241;28;20058;-96
2022/08/12 03:04:45;;;;;;;11.77;6.70;;;17.10;99.90;;;;;;4996290;28;20065;-96
2022/08/12 03:07:21;;;;;;;13.15;7.18;;;16.90;99.90;;;;;;4980972;28;20047;-96
2022/08/12 03:10:12;;;;;;;11.85;7.03;;;16.80;99.90;;;;;;5001402;28;20027;-96
2022/08/12 03:12:41;;;;;;;12.05;7.03;;;16.80;99.90;;;;;;4983746;28;20050;-96
2022/08/12 04:13:24;;;;;;;13.10;7.13;;;16.40;99.90;;;;;;4939877;29;20071;-95
2022/08/12 04:15:51;;;;;;;14.40;7.40;;;16.40;99.90;;;;;;4923842;29;20048;-96
2022/08/12 04:26:05;;;;;;;12.85;7.20;;;16.40;99.90;;;;;;5320069;23;20059;-96
2022/08/12 04:28:31;;;;;;;13.13;7.30;;;17.10;99.90;;;;;;4974767;29;20054;-96
2022/08/12 04:30:57;;;;;;;12.95;7.28;;;16.10;99.90;;;;;;4973860;29;20047;-95
2022/08/12 04:33:24;;;;;;;13.18;6.72;;;16.30;99.90;;;;;;4976536;29;20038;-96
2022/08/12 04:35:50;;;;;;;12.55;7.43;;;16.70;99.90;;;;;;4972869;28;20114;-96
2022/08/12 04:38:27;;;;;;;;;;;;;;;;;;;;;
2022/08/12 04:41:03;;;;;;;13.05;7.22;;;16.40;99.90;;;;;;4973006;29;20066;-96
2022/08/12 04:43:41;;;;;;;13.35;7.47;;;16.40;99.90;;;;;;4974586;29;20031;-95
2022/08/12 04:46:10;;;;;;;12.25;7.25;;;16.20;99.90;;;;;;4975992;28;20066;-95
2022/08/12 04:48:45;;;;;;;13.32;7.40;;;16.90;99.90;;;;;;4976489;29;20047;-95
2022/08/12 04:51:12;;;;;;;12.35;7.40;;;16.40;99.90;;;;;;4977230;28;20097;-96
2022/08/12 04:53:51;;;;;;;12.27;7.20;;;16.40;99.90;;;;;;4976735;29;20039;-96
2022/08/12 04:56:18;;;;;;;15.50;7.40;;;16.40;99.90;;;;;;4973091;28;20057;-96
2022/08/12 04:58:49;;;;;;;14.23;7.35;;;17.40;99.90;;;;;;4976177;28;20083;-96
2022/08/12 05:01:15;;;;;;;13.07;7.15;;;16.90;99.90;;;;;;4976264;28;20595;-96
2022/08/12 05:03:44;;;;;;;13.13;7.20;;;16.60;99.90;;;;;;4976942;28;20087;-96
2022/08/12 05:06:10;;;;;;;14.45;7.15;;;16.90;99.90;;;;;;4978778;28;20054;-96
2022/08/12 05:09:07;;;;;;;12.85;7.50;;;16.60;99.90;;;;;;4972427;29;20110;-96
2022/08/12 05:11:36;;;;;;;15.57;7.28;;;16.00;99.90;;;;;;4969204;29;20047;-96
2022/08/12 05:14:14;;;;;;;13.40;7.30;;;16.50;99.90;;;;;;4978247;28;20114;-96
2022/08/12 05:16:50;;;;;;;16.67;7.72;;;16.50;99.90;;;;;;4975971;28;20027;-96
2022/08/12 05:19:45;;;;;;;12.40;7.22;;;16.60;99.90;;;;;;4953465;28;20042;-96
2022/08/12 05:24:57;;;;;;;18.80;7.68;;;16.70;99.90;;;;;;4959962;28;20035;-95
2022/08/12 05:27:23;;;;;;;13.38;7.80;;;16.60;99.90;;;;;;4943780;29;20032;-96
2022/08/12 05:29:48;;;;;;;12.65;6.95;;;16.70;99.90;;;;;;4943219;29;20044;-96
2022/08/12 05:32:33;;;;;;;13.10;7.43;;;16.60;99.90;;;;;;4944023;29;20042;-96
2022/08/12 05:35:09;;;;;;;13.25;7.45;;;16.70;99.90;;;;;;4961114;28;20040;-96
2022/08/12 05:37:35;;;;;;;13.38;7.00;;;17.00;99.90;;;;;;4940189;29;20051;-96
2022/08/12 05:40:03;;;;;;;11.63;6.82;;;16.70;99.90;;;;;;4939360;29;20173;-96
2022/08/12 05:42:30;;;;;;;12.27;7.00;;;16.90;99.90;;;;;;4934055;29;20125;-96
2022/08/12 05:45:09;;;;;;;14.10;7.05;;;16.90;99.90;;;;;;4935047;28;20051;-95
2022/08/12 05:47:37;;;;;;;12.27;7.28;;;17.00;99.90;;;;;;4944575;28;20063;-96
2022/08/12 05:50:03;;;;;;;13.65;6.72;;;17.30;99.90;;;;;;4935922;29;20055;-96
2022/08/12 05:52:29;;;;;;;12.23;6.95;;;17.10;99.90;;;;;;4931473;29;20058;-93
2022/08/12 05:55:04;;;;;;;12.52;7.13;;;17.20;99.90;;;;;;4957182;28;20131;-86
2022/08/12 05:57:32;;;;;;;11.07;6.22;;;17.10;99.90;;;;;;4935483;29;20047;-82
2022/08/12 05:59:58;;;;;;;15.60;6.60;;;17.90;99.90;;;;;;4918211;29;20047;-84
2022/08/12 06:02:25;;;;;;;11.95;6.60;;;17.30;99.90;;;;;;4916224;29;20040;-85
2022/08/12 06:04:50;;;;;;;11.90;6.57;;;17.40;99.90;;;;;;4918060;29;20130;-84
2022/08/12 06:07:17;;;;;;;13.23;6.50;;;17.90;99.90;;;;;;4936525;29;20589;-84
2022/08/12 06:09:42;;;;;;;11.15;6.30;;;17.50;99.90;;;;;;4922311;29;20484;-84
2022/08/12 06:12:08;;;;;;;11.30;6.32;;;17.60;99.90;;;;;;4922288;29;20047;-81
2022/08/12 06:14:35;;;;;;;13.45;5.90;;;17.70;99.90;;;;;;4938849;29;20058;-88
2022/08/12 06:17:01;;;;;;;12.00;6.00;;;17.80;99.90;;;;;;4922006;29;20043;-85
2022/08/12 06:19:30;;;;;;;15.75;6.85;;;18.00;99.90;;;;;;4922066;29;20135;-85
2022/08/12 06:21:56;;;;;;;11.75;6.07;;;17.90;99.90;;;;;;4921094;29;20059;-85
2022/08/12 06:24:24;;;;;;;12.45;5.93;;;18.20;99.90;;;;;;4952802;29;20087;-85
2022/08/12 06:26:50;;;;;;;13.80;6.05;;;18.10;99.90;;;;;;4940558;29;20106;-82
2022/08/12 06:29:18;;;;;;;13.40;6.10;;;18.60;99.90;;;;;;4940202;29;20047;-81
2022/08/12 06:31:49;;;;;;;12.23;6.10;;;18.50;99.90;;;;;;4958058;29;20067;-80
2022/08/12 06:34:16;;;;;;;13.07;6.25;;;18.40;99.90;;;;;;4940834;29;20040;-84
2022/08/12 06:36:44;;;;;;;14.75;7.00;;;18.50;99.90;;;;;;4940333;29;20043;-81
2022/08/12 06:39:14;;;;;;;12.30;6.68;;;18.70;99.90;;;;;;4958186;29;20145;-85
2022/08/12 06:44:24;;;;;;;11.18;6.18;;;18.70;99.90;;;;;;4939237;29;20047;-81
2022/08/12 06:46:51;;;;;;;12.45;6.07;;;18.70;99.90;;;;;;4940370;29;20047;-81
2022/08/12 06:49:16;;;;;;;15.10;6.38;;;18.80;99.90;;;;;;4940324;29;20051;-81
2022/08/12 06:51:42;;;;;;;12.40;5.93;;;18.90;99.90;;;;;;4957278;29;20055;-81
2022/08/12 06:54:10;;;;;;;13.27;6.47;;;19.00;99.90;;;;;;4957737;29;20122;-81
2022/08/12 06:56:35;;;;;;;11.40;6.13;;;19.10;99.90;;;;;;4957065;29;20051;-81
2022/08/12 06:59:02;;;;;;;12.63;6.13;;;19.20;99.90;;;;;;4939843;29;20073;-81
2022/08/12 07:01:30;;;;;;;12.02;5.97;;;19.40;99.90;;;;;;4940531;29;20496;-81
2022/08/12 07:03:56;;;;;;;13.10;6.32;;;19.40;99.90;;;;;;4939116;29;20043;-81
2022/08/12 07:06:22;;;;;;;11.10;6.30;;;19.60;99.90;;;;;;4957189;29;20445;-81
2022/08/12 07:08:48;;;;;;;13.43;6.32;;;19.80;99.90;;;;;;4940120;29;20108;-81
2022/08/12 07:11:14;;;;;;;12.05;6.68;;;19.80;99.90;;;;;;4956532;28;20050;-80
2022/08/12 07:13:43;;;;;;;9.90;5.57;;;20.10;99.90;;;;;;4957323;28;20051;-80
2022/08/12 07:16:15;;;;;;;11.75;6.93;;;20.20;99.90;;;;;;4939830;29;20058;-82
2022/08/12 07:18:42;;;;;;;11.80;6.40;;;20.30;99.90;;;;;;4938668;29;20051;-81
2022/08/12 07:21:09;;;;;;;15.35;6.85;;;21.00;99.90;;;;;;4940283;29;20392;-81
2022/08/12 07:23:37;;;;;;;11.25;6.40;;;20.60;99.90;;;;;;4939604;29;20055;-81
2022/08/12 07:26:05;;;;;;;12.90;6.45;;;20.70;99.90;;;;;;4955665;29;20503;-81
2022/08/12 07:28:34;;;;;;;11.00;6.13;;;20.80;99.90;;;;;;4956352;29;20542;-80
2022/08/12 07:31:03;;;;;;;10.80;5.50;;;21.00;99.90;;;;;;4956423;29;20055;-81
2022/08/12 07:33:29;;;;;;;14.27;6.43;;;21.10;99.90;;;;;;4956454;28;20039;-81
2022/08/12 07:35:57;;;;;;;12.40;6.15;;;21.70;99.90;;;;;;4939558;29;20047;-81
2022/08/12 07:38:32;;;;;;;12.43;6.22;;;21.40;99.90;;;;;;4939519;29;20051;-81
2022/08/12 07:41:12;;;;;;;11.93;5.65;;;21.50;99.90;;;;;;4938514;29;20054;-81
2022/08/12 07:43:43;;;;;;;10.25;5.65;;;21.60;99.90;;;;;;4939268;29;20043;-79
2022/08/12 07:46:12;;;;;;;9.32;5.25;;;22.10;99.90;;;;;;4937292;29;20503;-81
2022/08/12 07:48:41;;;;;;;10.07;5.40;;;22.00;99.90;;;;;;4939297;29;20126;-81
2022/08/12 07:51:07;;;;;;;11.40;5.32;;;22.20;99.90;;;;;;4956463;28;20062;-82
2022/08/12 07:53:34;;;;;;;10.43;5.50;;;22.30;99.90;;;;;;4956314;29;20392;-82
2022/08/12 07:56:01;;;;;;;11.98;5.10;;;22.50;99.90;;;;;;4956024;29;20125;-82
2022/08/12 07:58:26;;;;;;;9.60;5.10;;;22.70;99.90;;;;;;4939209;29;20134;-83
2022/08/12 08:00:56;;;;;;;10.00;4.97;;;22.80;99.90;;;;;;4938245;29;20130;-83
2022/08/12 08:03:24;;;;;;;10.43;4.95;;;23.00;99.90;;;;;;4956608;29;20103;-82
2022/08/12 08:05:51;;;;;;;11.43;4.72;;;23.10;99.90;;;;;;4956332;29;20048;-82
2022/08/12 08:08:20;;;;;;;12.45;5.13;;;23.30;99.90;;;;;;4955636;29;20044;-82
2022/08/12 08:10:47;;;;;;;9.18;4.57;;;23.40;99.90;;;;;;4955444;29;20035;-82
2022/08/12 08:13:14;;;;;;;10.73;4.80;;;23.70;99.90;;;;;;4939051;29;20054;-82
2022/08/12 08:15:40;;;;;;;10.27;4.20;;;24.30;99.90;;;;;;4938043;29;20086;-82
2022/08/12 08:18:10;;;;;;;9.65;4.55;;;23.90;99.90;;;;;;4938869;29;20051;-82
2022/08/12 08:20:45;;;;;;;13.00;4.35;;;24.00;99.90;;;;;;4938888;29;20463;-82
2022/08/12 08:23:15;;;;;;;10.65;4.45;;;24.20;99.90;;;;;;4955148;28;20102;-82
2022/08/12 08:25:42;;;;;;;13.90;4.85;;;24.30;99.90;;;;;;4956240;29;20054;-82
2022/08/12 08:28:17;;;;;;;10.25;4.30;;;24.40;99.90;;;;;;4938524;29;20035;-81
2022/08/12 08:30:45;;;;;;;10.63;4.30;;;24.50;99.90;;;;;;4955073;28;20121;-81
2022/08/12 08:33:13;;;;;;;9.45;4.40;;;24.70;99.90;;;;;;4955946;28;20482;-82
2022/08/12 08:35:40;;;;;;;10.18;4.20;;;24.90;99.90;;;;;;4955150;29;20047;-81
2022/08/12 08:38:08;;;;;;;11.30;4.50;;;24.90;99.90;;;;;;4955813;29;20050;-82
2022/08/12 08:43:27;;;;;;;10.15;4.35;;;25.30;99.90;;;;;;4955186;29;20055;-80
2022/08/12 08:45:55;;;;;;;10.23;4.10;;;25.40;99.90;;;;;;4955564;29;20105;-80
2022/08/12 08:48:21;;;;;;;11.23;4.05;;;25.50;99.90;;;;;;4955369;29;20047;-81
2022/08/12 08:50:48;;;;;;;8.63;4.03;;;25.60;99.90;;;;;;4954719;29;20039;-80
2022/08/12 08:53:13;;;;;;;8.40;3.70;;;25.70;99.90;;;;;;4955401;29;20047;-81
2022/08/12 08:55:41;;;;;;;9.32;4.10;;;25.90;99.90;;;;;;4955401;29;20066;-81
2022/08/12 08:58:07;;;;;;;8.75;4.03;;;26.10;99.90;;;;;;4954613;29;20102;-86
2022/08/12 09:00:37;;;;;;;10.00;4.10;;;26.30;99.90;;;;;;4937868;29;20483;-86
2022/08/12 09:03:03;;;;;;;11.82;4.53;;;26.40;99.90;;;;;;4937664;29;20430;-84
2022/08/12 09:05:29;;;;;;;8.02;3.50;;;26.60;99.90;;;;;;4960141;29;20499;-85
2022/08/12 09:07:56;;;;;;;10.68;3.70;;;26.70;99.90;;;;;;4957049;29;20050;-84
2022/08/12 09:10:22;;;;;;;12.18;4.00;;;26.90;99.90;;;;;;4937171;29;20120;-85
2022/08/12 09:15:34;;;;;;;9.15;4.00;;;27.20;99.90;;;;;;4955037;29;20051;-84
2022/08/12 09:18:01;;;;;;;11.50;4.28;;;27.40;99.70;;;;;;4936489;29;20050;-84
2022/08/12 09:20:29;;;;;;;9.77;3.45;;;27.80;98.70;;;;;;4937584;29;20055;-85
2022/08/12 09:22:58;;;;;;;9.00;3.80;;;27.60;97.20;;;;;;4937349;29;20526;-85
2022/08/12 09:25:25;;;;;;;12.68;4.35;;;27.70;96.30;;;;;;4936999;29;20055;-87
2022/08/12 09:27:54;;;;;;;11.55;3.53;;;27.80;96.50;;;;;;4937534;29;20079;-87
2022/08/12 09:30:21;;;;;;;13.45;3.88;;;27.90;96.20;;;;;;4937728;29;20110;-86
2022/08/12 09:32:49;;;;;;;9.52;3.50;;;28.00;95.90;;;;;;4953786;29;20098;-86
2022/08/12 09:35:30;;;;;;;8.73;3.90;;;28.20;96.00;;;;;;4937587;29;20043;-86
2022/08/12 09:37:56;;;;;;;10.13;3.75;;;28.40;95.60;;;;;;4937383;29;20130;-86
2022/08/12 09:40:23;;;;;;;10.18;4.10;;;28.40;94.50;;;;;;4953919;29;20051;-88
2022/08/12 09:45:34;;;;;;;8.85;3.70;;;28.70;93.40;;;;;;4912664;29;20047;-87
2022/08/12 09:48:07;;;;;;;8.98;3.92;;;28.70;92.40;;;;;;4935120;29;20054;-86
2022/08/12 09:50:36;;;;;;;10.43;3.97;;;29.00;92.80;;;;;;4918549;29;20048;-86
2022/08/12 09:53:06;;;;;;;10.77;3.70;;;29.00;92.70;;;;;;4918620;29;20075;-87
2022/08/12 09:55:33;;;;;;;8.38;3.60;;;29.10;92.30;;;;;;4934985;29;20559;-86
2022/08/12 09:58:01;;;;;;;8.75;3.92;;;29.30;92.40;;;;;;4918128;29;20047;-86
2022/08/12 10:00:27;;;;;;;8.95;3.85;;;29.80;92.20;;;;;;4918169;29;20204;-86
2022/08/12 10:03:03;;;;;;;10.02;3.80;;;29.60;91.60;;;;;;4917893;29;20043;-86
2022/08/12 10:05:32;;;;;;;11.93;3.70;;;29.80;91.40;;;;;;4918153;29;20457;-86
2022/08/12 10:07:59;;;;;;;9.95;3.63;;;29.80;91.00;;;;;;4917187;29;20098;-86
2022/08/12 10:10:27;;;;;;;9.85;4.18;;;29.90;90.30;;;;;;4919107;29;20047;-87
2022/08/12 10:15:43;;;;;;;9.52;3.60;;;30.00;89.60;;;;;;4911909;29;20071;-86
2022/08/12 10:18:10;;;;;;;10.45;3.67;;;30.10;89.60;;;;;;4935404;29;20115;-87
2022/08/12 10:20:37;;;;;;;8.82;3.35;;;30.20;87.80;;;;;;4934584;29;20047;-87
2022/08/12 10:23:04;;;;;;;8.75;3.40;;;30.40;87.40;;;;;;4917716;29;20225;-86
2022/08/12 10:30:58;;;;;;;8.20;3.42;;;30.80;83.60;;;;;;4934547;29;20052;-86
2022/08/12 10:33:24;;;;;;;7.00;3.10;;;30.90;82.60;;;;;;4924412;29;20050;-85
2022/08/12 10:35:52;;;;;;;11.45;3.15;;;31.00;81.80;;;;;;4952825;29;20059;-87
2022/08/12 10:38:20;;;;;;;8.55;2.90;;;31.00;80.60;;;;;;4959106;28;20035;-86
2022/08/12 10:43:42;;;;;;;9.05;3.10;;;31.40;79.70;;;;;;4935765;29;20174;-85
2022/08/12 10:46:17;;;;;;;9.02;3.03;;;31.40;78.90;;;;;;4962800;29;20198;-85
2022/08/12 10:48:47;;;;;;;7.07;2.80;;;31.50;75.90;;;;;;4936463;29;20050;-85
2022/08/12 10:51:17;;;;;;;7.40;3.00;;;31.60;76.60;;;;;;4936698;28;20051;-86
2022/08/12 10:53:45;;;;;;;8.55;3.17;;;31.50;76.10;;;;;;4937232;29;20054;-85
2022/08/12 10:56:10;;;;;;;9.15;2.72;;;31.60;75.70;;;;;;4939762;29;20463;-86
2022/08/12 10:58:39;;;;;;;8.32;2.92;;;31.80;74.10;;;;;;4940329;29;20074;-86
2022/08/12 11:01:09;;;;;;;7.32;2.90;;;31.80;73.60;;;;;;4957444;29;20050;-88
2022/08/12 11:03:36;;;;;;;7.15;3.10;;;31.90;73.30;;;;;;4939547;29;20043;-85
2022/08/12 11:06:06;;;;;;;10.82;3.40;;;32.00;73.50;;;;;;4957135;28;20511;-86
2022/08/12 11:08:33;;;;;;;8.23;3.05;;;32.10;71.90;;;;;;4957606;29;20043;-86
2022/08/12 11:10:59;;;;;;;7.43;3.20;;;32.20;72.30;;;;;;4939210;29;20514;-85
2022/08/12 11:13:25;;;;;;;7.47;3.00;;;32.30;72.10;;;;;;4940274;29;20043;-85
2022/08/12 11:15:54;;;;;;;8.57;2.90;;;32.40;71.80;;;;;;4939752;29;20155;-85
2022/08/12 11:18:21;;;;;;;8.23;3.13;;;32.40;70.30;;;;;;4956653;29;20051;-83
2022/08/12 11:20:47;;;;;;;8.45;2.90;;;32.20;68.30;;;;;;4939417;29;20471;-84
2022/08/12 11:23:13;;;;;;;8.25;2.80;;;32.40;69.80;;;;;;4940174;29;20399;-87
2022/08/12 11:25:42;;;;;;;9.35;3.13;;;32.50;69.50;;;;;;4956754;29;20056;-85
2022/08/12 11:28:07;;;;;;;9.70;3.03;;;32.50;68.00;;;;;;4957241;29;20043;-85
2022/08/12 11:30:33;;;;;;;7.82;3.10;;;32.50;68.60;;;;;;4956974;29;20058;-84
2022/08/12 11:32:58;;;;;;;9.45;3.40;;;32.60;68.60;;;;;;4939340;29;20043;-85
2022/08/12 11:35:26;;;;;;;8.48;3.30;;;32.80;68.70;;;;;;4956892;29;20049;-85
2022/08/12 11:37:52;;;;;;;7.85;3.22;;;32.90;68.20;;;;;;4938998;29;20055;-86
2022/08/12 11:40:18;;;;;;;9.07;3.42;;;33.00;68.20;;;;;;4939594;29;20054;-86
2022/08/12 11:42:43;;;;;;;8.40;3.42;;;33.20;68.00;;;;;;4956484;29;20118;-86
2022/08/12 11:45:10;;;;;;;10.13;3.42;;;33.10;67.90;;;;;;4939360;29;20083;-86
2022/08/12 11:47:38;;;;;;;10.93;3.53;;;33.40;67.70;;;;;;4956888;29;20040;-84
2022/08/12 11:50:05;;;;;;;8.10;3.50;;;33.30;67.80;;;;;;4939756;29;20451;-88
2022/08/12 11:52:30;;;;;;;8.32;3.60;;;33.20;67.70;;;;;;4956324;29;20042;-87
2022/08/12 11:54:57;;;;;;;8.15;3.63;;;33.20;67.50;;;;;;4941096;29;20073;-88
2022/08/12 11:57:22;;;;;;;8.45;3.38;;;33.40;67.40;;;;;;4939443;29;20389;-88
2022/08/12 11:59:48;;;;;;;10.02;3.63;;;33.40;66.30;;;;;;4938025;29;20054;-88
2022/08/12 12:02:14;;;;;;;7.88;3.53;;;33.30;66.00;;;;;;4956622;29;20046;-87
2022/08/12 12:04:39;;;;;;;8.90;3.67;;;33.30;66.40;;;;;;4939248;29;20058;-88
2022/08/12 12:07:05;;;;;;;10.45;4.22;;;33.40;66.50;;;;;;4938148;29;20039;-88
2022/08/12 12:09:32;;;;;;;9.70;4.05;;;33.60;66.10;;;;;;4938808;29;20101;-88
2022/08/12 12:11:59;;;;;;;8.05;3.67;;;33.80;65.70;;;;;;4938234;29;20038;-89
2022/08/12 12:14:26;;;;;;;9.05;4.00;;;33.90;65.80;;;;;;4930657;29;20181;-88
2022/08/12 12:16:51;;;;;;;9.90;3.92;;;34.00;65.00;;;;;;4956515;28;20070;-88
2022/08/12 12:19:17;;;;;;;10.32;3.95;;;33.90;65.10;;;;;;4938750;29;20095;-89
2022/08/12 12:21:43;;;;;;;9.90;3.70;;;34.00;63.20;;;;;;4954533;29;20043;-88
2022/08/12 12:24:11;;;;;;;7.85;3.72;;;33.90;63.80;;;;;;4936961;29;20128;-89
2022/08/12 12:26:37;;;;;;;10.15;4.15;;;34.00;64.20;;;;;;4974489;29;20047;-90
2022/08/12 12:29:11;;;;;;;8.13;3.83;;;34.10;63.40;;;;;;4966379;23;20171;-87
2022/08/12 12:31:37;;;;;;;10.48;4.20;;;34.10;61.80;;;;;;4966863;28;20452;-88
2022/08/12 12:34:12;;;;;;;10.50;4.05;;;34.00;63.30;;;;;;4964542;28;20049;-88
2022/08/12 12:36:38;;;;;;;8.00;4.07;;;34.00;63.40;;;;;;4965319;28;20086;-88
2022/08/12 12:39:04;;;;;;;9.65;4.13;;;33.90;63.10;;;;;;4964070;28;20487;-87
2022/08/12 12:41:45;;;;;;;8.95;4.07;;;33.90;63.10;;;;;;4945939;29;20146;-87
2022/08/12 12:44:11;;;;;;;8.65;4.30;;;33.90;62.80;;;;;;4939189;29;20039;-82
2022/08/12 12:46:36;;;;;;;10.48;4.22;;;34.10;63.60;;;;;;4950840;28;20062;-84
2022/08/12 12:49:05;;;;;;;8.20;4.15;;;34.10;63.00;;;;;;4964801;28;20041;-83
2022/08/12 12:51:30;;;;;;;11.25;3.80;;;34.30;62.40;;;;;;4986087;28;20043;-83
2022/08/12 12:54:11;;;;;;;10.70;4.05;;;34.40;63.10;;;;;;4956051;28;20038;-83
2022/08/12 12:56:53;;;;;;;9.55;4.07;;;34.40;61.80;;;;;;4949726;28;20488;-84
2022/08/12 12:59:31;;;;;;;8.93;3.90;;;34.70;62.90;;;;;;4952086;28;20058;-84
2022/08/12 13:02:05;;;;;;;8.18;3.78;;;34.90;63.10;;;;;;4973365;28;20038;-84
2022/08/12 13:04:46;;;;;;;9.60;4.13;;;35.20;63.10;;;;;;4971315;28;20053;-84
2022/08/12 13:07:39;;;;;;;10.15;4.00;;;35.20;63.20;;;;;;4973178;28;20046;-82
2022/08/12 13:10:05;;;;;;;9.25;3.88;;;35.20;60.40;;;;;;4952016;28;20506;-84
2022/08/12 13:12:47;;;;;;;9.43;4.65;;;35.00;61.20;;;;;;4957013;28;20047;-83
2022/08/12 13:15:16;;;;;;;9.80;4.43;;;35.10;61.10;;;;;;4974731;28;20053;-85
2022/08/12 13:18:03;;;;;;;10.02;4.10;;;35.30;61.40;;;;;;4956089;28;20393;-84
2022/08/12 13:20:30;;;;;;;7.72;3.70;;;35.40;61.40;;;;;;4974783;28;20431;-85
2022/08/12 13:22:56;;;;;;;10.73;4.13;;;35.50;60.40;;;;;;4974145;28;20053;-84
2022/08/12 13:25:40;;;;;;;9.57;3.70;;;35.30;59.20;;;;;;4970864;28;20047;-89
2022/08/12 13:28:23;;;;;;;10.52;3.70;;;35.30;60.30;;;;;;4956693;28;20057;-87
2022/08/12 13:30:51;;;;;;;8.35;3.55;;;35.30;60.00;;;;;;4973407;28;20055;-88
2022/08/12 13:33:33;;;;;;;9.25;3.60;;;35.40;60.30;;;;;;4975253;28;20093;-88
2022/08/12 13:36:00;;;;;;;9.85;3.78;;;35.60;60.40;;;;;;4975837;28;20054;-88
2022/08/12 13:38:46;;;;;;;8.40;3.83;;;35.50;60.40;;;;;;4975164;28;20035;-87
2022/08/12 13:41:31;;;;;;;8.77;3.55;;;35.50;59.40;;;;;;4962303;28;20039;-87
2022/08/12 13:44:02;;;;;;;9.98;3.80;;;35.60;59.60;;;;;;4950582;28;20043;-88
2022/08/12 13:46:28;;;;;;;9.65;3.90;;;35.50;59.30;;;;;;4954642;29;20074;-88
2022/08/12 13:48:55;;;;;;;9.25;3.50;;;35.50;59.80;;;;;;4948122;28;20467;-87
2022/08/12 13:51:21;;;;;;;9.18;3.65;;;35.40;59.80;;;;;;4956495;28;20529;-87
2022/08/12 13:53:47;;;;;;;7.93;3.30;;;35.50;59.50;;;;;;4973039;28;20039;-87
2022/08/12 13:56:13;;;;;;;7.93;3.58;;;35.50;58.90;;;;;;4975609;28;20047;-86
2022/08/12 13:58:43;;;;;;;11.57;3.50;;;35.50;58.90;;;;;;4955968;28;20096;-87
2022/08/12 14:01:08;;;;;;;7.75;3.53;;;35.40;58.40;;;;;;4974138;28;20078;-87
2022/08/12 14:03:36;;;;;;;11.00;3.60;;;35.60;59.10;;;;;;4957001;28;20534;-88
2022/08/12 14:06:03;;;;;;;8.18;3.10;;;35.50;59.00;;;;;;4957259;28;20047;-88
2022/08/12 14:08:29;;;;;;;8.52;3.65;;;35.40;58.20;;;;;;4974022;28;20097;-87
2022/08/12 14:10:55;;;;;;;9.05;3.10;;;35.50;57.90;;;;;;4959332;28;20122;-87
2022/08/12 14:13:26;;;;;;;10.05;3.50;;;35.60;58.60;;;;;;4972929;28;20051;-88
2022/08/12 14:16:11;;;;;;;8.23;3.38;;;35.70;59.30;;;;;;4949717;28;20215;-85
2022/08/12 14:18:38;;;;;;;7.57;3.20;;;35.90;57.80;;;;;;4963869;28;20053;-87
2022/08/12 14:21:22;;;;;;;9.50;3.30;;;35.90;58.50;;;;;;4935775;29;20044;-89
2022/08/12 14:23:49;;;;;;;8.85;3.20;;;36.00;57.60;;;;;;4938971;29;20047;-89
2022/08/12 14:26:19;;;;;;;8.90;3.25;;;35.90;58.30;;;;;;4939273;29;20043;-88
2022/08/12 14:28:59;;;;;;;9.15;3.42;;;35.80;57.50;;;;;;4956684;28;20081;-92
2022/08/12 14:31:25;;;;;;;8.38;3.22;;;35.80;58.00;;;;;;4940945;29;20422;-85
2022/08/12 14:34:01;;;;;;;7.90;3.40;;;35.70;57.40;;;;;;4957254;29;20126;-87
2022/08/12 14:36:26;;;;;;;7.35;3.05;;;35.80;58.40;;;;;;4952014;29;20085;-87
2022/08/12 14:39:16;;;;;;;7.25;3.08;;;35.70;57.90;;;;;;4961900;29;20047;-86
2022/08/12 14:41:42;;;;;;;9.77;3.35;;;35.70;57.80;;;;;;4942425;29;20055;-86
2022/08/12 14:44:07;;;;;;;9.05;3.60;;;35.60;57.50;;;;;;4960569;29;20062;-87
2022/08/12 14:46:45;;;;;;;7.28;2.95;;;35.80;57.30;;;;;;4943040;29;20446;-90
2022/08/12 14:49:11;;;;;;;12.13;3.50;;;35.70;57.50;;;;;;4963247;28;20506;-87
2022/08/12 14:51:37;;;;;;;7.93;3.33;;;35.80;57.80;;;;;;4967701;28;20075;-87
2022/08/12 14:54:19;;;;;;;8.43;3.10;;;35.80;57.00;;;;;;4948681;28;20085;-86
2022/08/12 14:56:45;;;;;;;8.32;3.10;;;35.50;57.90;;;;;;4957127;28;20129;-84
2022/08/12 15:01:55;;;;;;;8.75;3.13;;;35.50;57.50;;;;;;4944042;29;20051;-84
2022/08/12 15:04:26;;;;;;;7.18;3.10;;;35.30;57.90;;;;;;4953390;28;20046;-86
2022/08/12 15:06:53;;;;;;;7.63;3.10;;;35.30;57.40;;;;;;4977142;28;20059;-87
2022/08/12 15:09:19;;;;;;;7.10;2.90;;;35.30;57.00;;;;;;4972493;28;20055;-86
2022/08/12 15:11:48;;;;;;;8.73;3.00;;;35.20;57.30;;;;;;4976775;28;20565;-89
2022/08/12 15:14:34;;;;;;;10.18;2.92;;;35.30;57.10;;;;;;4978056;28;20053;-84
2022/08/12 15:16:59;;;;;;;8.23;3.13;;;35.10;57.50;;;;;;4975747;28;20136;-86
2022/08/12 15:19:26;;;;;;;7.03;2.92;;;35.20;57.60;;;;;;4976551;28;20078;-86
2022/08/12 15:21:51;;;;;;;9.50;2.80;;;35.00;57.70;;;;;;4976994;28;20097;-84
2022/08/12 15:24:19;;;;;;;6.78;2.80;;;35.10;57.40;;;;;;4977278;28;20179;-85
2022/08/12 15:26:44;;;;;;;8.63;3.22;;;35.10;57.10;;;;;;4960749;28;20059;-84
2022/08/12 15:29:10;;;;;;;8.38;3.00;;;35.00;57.10;;;;;;4976978;28;20549;-85
2022/08/12 15:31:36;;;;;;;7.10;3.08;;;34.80;57.20;;;;;;4975771;28;20050;-84
2022/08/12 15:34:02;;;;;;;6.88;2.95;;;35.00;57.00;;;;;;4958357;28;20435;-85
2022/08/12 15:36:28;;;;;;;6.70;2.80;;;35.00;56.90;;;;;;4975900;28;20051;-85
2022/08/12 15:38:53;;;;;;;9.25;3.20;;;34.90;57.20;;;;;;4957337;28;20114;-84
2022/08/12 15:41:21;;;;;;;8.57;2.95;;;34.70;57.10;;;;;;4975681;28;20380;-84
2022/08/12 15:43:46;;;;;;;9.27;3.00;;;34.70;57.10;;;;;;4975762;28;20391;-84
2022/08/12 15:46:12;;;;;;;9.13;2.95;;;34.70;57.50;;;;;;4976146;28;20046;-84
2022/08/12 15:48:40;;;;;;;8.20;2.90;;;34.70;58.50;;;;;;4981482;28;20074;-84